createdAt,value
2023-02-07T00:08:19.900Z,69.45
2023-02-07T00:18:22.363Z,69.78
2023-02-07T00:28:26.414Z,69.21
2023-02-07T00:38:29.189Z,68.88
2023-02-07T00:48:33.450Z,68.74
2023-02-07T00:58:36.205Z,69.94
2023-02-07T01:08:40.179Z,70.87
2023-02-07T01:18:42.740Z,71.75
2023-02-07T01:28:46.873Z,73.14
2023-02-07T01:38:49.352Z,73.97
2023-02-07T01:48:55.422Z,73.36
2023-02-07T01:58:58.068Z,73.00
2023-02-07T02:09:02.708Z,72.72
2023-02-07T02:19:15.043Z,73.49
2023-02-07T02:29:32.349Z,72.02
2023-02-07T02:39:42.422Z,74.18
2023-02-07T02:49:45.614Z,74.22
2023-02-07T03:00:06.412Z,72.38
2023-02-07T03:10:14.393Z,71.75
2023-02-07T03:20:20.931Z,68.70
2023-02-07T03:30:27.328Z,69.07
2023-02-07T03:40:31.703Z,67.94
2023-02-07T03:50:35.561Z,67.50
2023-02-07T04:00:38.170Z,67.97
2023-02-07T04:10:41.959Z,68.14
2023-02-07T04:20:44.484Z,67.62
2023-02-07T04:30:48.523Z,67.93
2023-02-07T04:40:51.044Z,65.92
2023-02-07T04:50:55.189Z,65.99
2023-02-07T05:00:57.629Z,65.29
2023-02-07T05:11:01.479Z,65.50
2023-02-07T05:21:03.971Z,65.48
2023-02-07T05:31:07.880Z,65.75
2023-02-07T05:41:10.380Z,65.68
2023-02-07T05:51:14.116Z,65.27
2023-02-07T06:01:16.566Z,64.82
2023-02-07T06:11:20.348Z,65.10
2023-02-07T06:21:22.821Z,64.93
2023-02-07T06:31:27.028Z,66.12
2023-02-07T06:41:29.648Z,66.22
2023-02-07T06:51:33.526Z,66.44
2023-02-07T07:01:36.191Z,66.04
2023-02-07T07:11:43.074Z,66.70
2023-02-07T07:21:46.058Z,65.55
2023-02-07T07:31:49.865Z,65.83
2023-02-07T07:41:52.426Z,65.90
2023-02-07T07:51:56.526Z,67.47
2023-02-07T08:01:59.071Z,68.05
2023-02-07T08:12:03.453Z,66.65
2023-02-07T08:22:06.283Z,65.66
2023-02-07T08:32:10.108Z,64.00
2023-02-07T08:42:12.578Z,65.90
2023-02-07T08:52:16.320Z,67.17
2023-02-07T09:02:18.867Z,66.33
2023-02-07T09:12:22.650Z,66.77
2023-02-07T09:22:25.145Z,66.56
2023-02-07T09:32:28.910Z,65.45
2023-02-07T09:42:34.446Z,62.06
2023-02-07T09:52:40.711Z,62.30
2023-02-07T10:02:45.658Z,60.84
2023-02-07T10:13:02.667Z,59.74
2023-02-07T10:23:11.303Z,60.14
2023-02-07T10:33:16.954Z,59.13
2023-02-07T10:43:26.358Z,57.65
2023-02-07T10:53:55.340Z,57.43
2023-02-07T11:03:59.574Z,55.62
2023-02-07T11:14:04.465Z,55.61
2023-02-07T11:24:09.703Z,53.62
2023-02-07T11:34:25.768Z,51.05
2023-02-07T11:44:30.838Z,50.39
2023-02-07T11:54:33.706Z,48.16
2023-02-07T12:04:38.802Z,46.60
2023-02-07T12:14:44.889Z,45.35
2023-02-07T12:24:53.476Z,42.06
2023-02-07T12:34:58.398Z,40.50
2023-02-07T12:45:03.499Z,40.37
2023-02-07T12:55:13.526Z,37.96
2023-02-07T13:05:28.052Z,37.00
2023-02-07T13:15:35.029Z,35.40
2023-02-07T13:25:41.658Z,33.91
2023-02-07T13:35:44.941Z,36.14
2023-02-07T13:45:54.298Z,34.37
2023-02-07T13:56:01.303Z,36.22
2023-02-07T14:06:17.603Z,38.92
2023-02-07T14:16:40.107Z,39.45
2023-02-07T14:27:03.376Z,38.95
2023-02-07T14:37:22.197Z,39.23
2023-02-07T14:47:26.427Z,38.52
2023-02-07T14:57:37.262Z,39.45
2023-02-07T15:07:40.442Z,40.48
2023-02-07T15:17:44.927Z,40.66
2023-02-07T15:27:59.862Z,43.05
2023-02-07T15:38:15.910Z,43.82
2023-02-07T15:48:18.482Z,44.33
2023-02-07T15:58:24.793Z,45.89
2023-02-07T16:08:29.635Z,45.33
2023-02-07T16:18:37.998Z,45.40
2023-02-07T16:28:40.523Z,46.79
2023-02-07T16:38:44.670Z,46.95
2023-02-07T16:48:47.113Z,47.68
2023-02-07T16:58:50.940Z,55.31
2023-02-07T17:08:56.390Z,45.75
2023-02-07T17:19:10.610Z,48.07
2023-02-07T17:29:14.110Z,48.44
2023-02-07T17:39:18.913Z,50.35
2023-02-07T17:49:21.321Z,50.90
2023-02-07T17:59:25.636Z,52.23
2023-02-07T18:09:28.184Z,52.97
2023-02-07T18:19:32.608Z,53.74
2023-02-07T18:29:35.185Z,54.14
2023-02-07T18:39:39.121Z,54.21
2023-02-07T18:49:41.585Z,53.92
2023-02-07T18:59:45.441Z,53.94
2023-02-07T19:09:47.888Z,54.24
2023-02-07T19:19:52.582Z,55.21
2023-02-07T19:29:55.148Z,56.19
2023-02-07T19:39:59.108Z,57.95
2023-02-07T19:50:01.515Z,57.25
2023-02-07T20:00:07.173Z,58.70
2023-02-07T20:10:10.345Z,58.69
2023-02-07T20:20:15.086Z,58.87
2023-02-07T20:30:17.633Z,58.74
2023-02-07T20:40:21.630Z,59.43
2023-02-07T20:50:24.068Z,58.78
2023-02-07T21:00:27.830Z,59.33
2023-02-07T21:10:30.372Z,59.64
2023-02-07T21:20:35.654Z,60.08
2023-02-07T21:30:38.446Z,60.26
2023-02-07T21:40:43.891Z,60.32
2023-02-07T21:50:46.309Z,60.45
2023-02-07T22:00:50.142Z,60.91
2023-02-07T22:10:52.677Z,61.88
2023-02-07T22:20:56.512Z,60.17
2023-02-07T22:30:59.282Z,59.10
2023-02-07T22:41:04.808Z,59.91
2023-02-07T22:51:13.987Z,59.77
2023-02-07T23:01:23.253Z,59.75
2023-02-07T23:11:25.805Z,60.17
2023-02-07T23:21:29.631Z,60.40
2023-02-07T23:31:32.512Z,60.46
2023-02-07T23:41:36.588Z,60.59
2023-02-07T23:51:39.419Z,60.89
